sensor_id;sensor_type;location;lat;lon;timestamp;temperature;humidity
9564;DHT22;4820;50.870;4.702;2022-08-19T00:01:53;20.40;99.90
9564;DHT22;4820;50.870;4.702;2022-08-19T00:04:23;20.40;99.90
9564;DHT22;4820;50.870;4.702;2022-08-19T00:06:50;20.30;99.90
9564;DHT22;4820;50.870;4.702;2022-08-19T00:09:18;20.30;99.90
9564;DHT22;4820;50.870;4.702;2022-08-19T00:11:45;20.30;99.90
9564;DHT22;4820;50.870;4.702;2022-08-19T00:14:14;20.20;99.90
9564;DHT22;4820;50.870;4.702;2022-08-19T00:16:44;20.10;99.90
9564;DHT22;4820;50.870;4.702;2022-08-19T00:19:14;20.10;99.90
9564;DHT22;4820;50.870;4.702;2022-08-19T00:21:41;20.00;99.90
9564;DHT22;4820;50.870;4.702;2022-08-19T00:24:09;20.00;99.90
9564;DHT22;4820;50.870;4.702;2022-08-19T00:26:37;19.90;99.90
9564;DHT22;4820;50.870;4.702;2022-08-19T00:29:05;19.90;99.90
9564;DHT22;4820;50.870;4.702;2022-08-19T00:31:33;19.90;99.90
9564;DHT22;4820;50.870;4.702;2022-08-19T00:33:59;19.90;99.90
9564;DHT22;4820;50.870;4.702;2022-08-19T00:36:25;19.90;99.90
9564;DHT22;4820;50.870;4.702;2022-08-19T00:38:51;19.90;99.90
9564;DHT22;4820;50.870;4.702;2022-08-19T00:41:19;20.00;99.90
9564;DHT22;4820;50.870;4.702;2022-08-19T00:44:07;19.90;99.90
9564;DHT22;4820;50.870;4.702;2022-08-19T00:46:36;19.90;99.90
9564;DHT22;4820;50.870;4.702;2022-08-19T00:49:09;19.80;99.90
9564;DHT22;4820;50.870;4.702;2022-08-19T00:51:35;19.80;99.90
9564;DHT22;4820;50.870;4.702;2022-08-19T00:54:02;19.80;99.90
9564;DHT22;4820;50.870;4.702;2022-08-19T00:56:28;19.80;99.90
9564;DHT22;4820;50.870;4.702;2022-08-19T00:58:57;19.80;99.90
9564;DHT22;4820;50.870;4.702;2022-08-19T01:01:23;19.80;99.90
9564;DHT22;4820;50.870;4.702;2022-08-19T01:03:49;19.80;99.90
9564;DHT22;4820;50.870;4.702;2022-08-19T01:06:16;19.80;99.90
9564;DHT22;4820;50.870;4.702;2022-08-19T01:08:41;19.80;99.90
9564;DHT22;4820;50.870;4.702;2022-08-19T01:11:08;19.80;99.90
9564;DHT22;4820;50.870;4.702;2022-08-19T01:13:34;19.80;99.90
9564;DHT22;4820;50.870;4.702;2022-08-19T01:16:07;19.70;99.90
9564;DHT22;4820;50.870;4.702;2022-08-19T01:18:40;19.70;99.90
9564;DHT22;4820;50.870;4.702;2022-08-19T01:21:15;19.70;99.90
9564;DHT22;4820;50.870;4.702;2022-08-19T01:23:44;19.70;99.90
9564;DHT22;4820;50.870;4.702;2022-08-19T01:26:21;19.60;99.90
9564;DHT22;4820;50.870;4.702;2022-08-19T01:28:49;19.60;99.90
9564;DHT22;4820;50.870;4.702;2022-08-19T01:31:20;19.60;99.90
9564;DHT22;4820;50.870;4.702;2022-08-19T01:33:47;19.60;99.90
9564;DHT22;4820;50.870;4.702;2022-08-19T01:36:22;19.60;99.90
9564;DHT22;4820;50.870;4.702;2022-08-19T01:38:48;19.60;99.90
9564;DHT22;4820;50.870;4.702;2022-08-19T01:41:17;19.60;99.90
9564;DHT22;4820;50.870;4.702;2022-08-19T01:43:43;19.60;99.90
9564;DHT22;4820;50.870;4.702;2022-08-19T01:46:10;19.60;99.90
9564;DHT22;4820;50.870;4.702;2022-08-19T01:48:40;19.60;99.90
9564;DHT22;4820;50.870;4.702;2022-08-19T01:51:07;19.70;99.90
9564;DHT22;4820;50.870;4.702;2022-08-19T01:53:33;19.70;99.90
9564;DHT22;4820;50.870;4.702;2022-08-19T01:55:59;19.70;99.90
9564;DHT22;4820;50.870;4.702;2022-08-19T01:58:30;19.80;99.90
9564;DHT22;4820;50.870;4.702;2022-08-19T02:00:57;19.80;99.90
9564;DHT22;4820;50.870;4.702;2022-08-19T02:03:23;19.80;99.90
9564;DHT22;4820;50.870;4.702;2022-08-19T02:05:58;19.80;99.90
9564;DHT22;4820;50.870;4.702;2022-08-19T02:08:26;19.70;99.90
9564;DHT22;4820;50.870;4.702;2022-08-19T02:10:53;19.80;99.90
9564;DHT22;4820;50.870;4.702;2022-08-19T02:13:20;19.70;99.90
9564;DHT22;4820;50.870;4.702;2022-08-19T02:15:46;19.70;99.90
9564;DHT22;4820;50.870;4.702;2022-08-19T02:18:12;19.70;99.90
9564;DHT22;4820;50.870;4.702;2022-08-19T02:20:39;19.60;99.90
9564;DHT22;4820;50.870;4.702;2022-08-19T02:23:07;19.60;99.90
9564;DHT22;4820;50.870;4.702;2022-08-19T02:25:33;19.50;99.90
9564;DHT22;4820;50.870;4.702;2022-08-19T02:27:58;19.50;99.90
9564;DHT22;4820;50.870;4.702;2022-08-19T02:30:24;19.40;99.90
9564;DHT22;4820;50.870;4.702;2022-08-19T02:32:52;19.30;99.90
9564;DHT22;4820;50.870;4.702;2022-08-19T02:35:18;19.30;99.90
9564;DHT22;4820;50.870;4.702;2022-08-19T02:37:44;19.20;99.90
9564;DHT22;4820;50.870;4.702;2022-08-19T02:40:30;19.20;99.90
9564;DHT22;4820;50.870;4.702;2022-08-19T02:43:01;19.10;99.90
9564;DHT22;4820;50.870;4.702;2022-08-19T02:45:31;19.10;99.90
9564;DHT22;4820;50.870;4.702;2022-08-19T02:47:57;19.00;99.90
9564;DHT22;4820;50.870;4.702;2022-08-19T02:50:22;19.00;99.90
9564;DHT22;4820;50.870;4.702;2022-08-19T02:52:48;19.00;99.90
9564;DHT22;4820;50.870;4.702;2022-08-19T02:55:14;19.00;99.90
9564;DHT22;4820;50.870;4.702;2022-08-19T02:57:42;19.00;99.90
9564;DHT22;4820;50.870;4.702;2022-08-19T03:00:08;19.00;99.90
9564;DHT22;4820;50.870;4.702;2022-08-19T03:02:38;18.90;99.90
9564;DHT22;4820;50.870;4.702;2022-08-19T03:05:04;18.90;99.90
9564;DHT22;4820;50.870;4.702;2022-08-19T03:07:30;18.90;99.90
9564;DHT22;4820;50.870;4.702;2022-08-19T03:09:56;18.90;99.90
9564;DHT22;4820;50.870;4.702;2022-08-19T03:12:23;18.90;99.90
9564;DHT22;4820;50.870;4.702;2022-08-19T03:14:48;18.90;99.90
9564;DHT22;4820;50.870;4.702;2022-08-19T03:17:15;18.80;99.90
9564;DHT22;4820;50.870;4.702;2022-08-19T03:19:41;18.80;99.90
9564;DHT22;4820;50.870;4.702;2022-08-19T03:22:09;18.70;99.90
9564;DHT22;4820;50.870;4.702;2022-08-19T03:24:35;18.70;99.90
9564;DHT22;4820;50.870;4.702;2022-08-19T03:27:01;18.70;99.90
9564;DHT22;4820;50.870;4.702;2022-08-19T03:29:29;18.70;99.90
9564;DHT22;4820;50.870;4.702;2022-08-19T03:32:04;18.70;99.90
9564;DHT22;4820;50.870;4.702;2022-08-19T03:34:31;18.70;99.90
9564;DHT22;4820;50.870;4.702;2022-08-19T03:36:59;18.70;99.90
9564;DHT22;4820;50.870;4.702;2022-08-19T03:39:28;18.80;99.90
9564;DHT22;4820;50.870;4.702;2022-08-19T03:41:54;18.80;99.90
9564;DHT22;4820;50.870;4.702;2022-08-19T03:44:26;18.80;99.90
9564;DHT22;4820;50.870;4.702;2022-08-19T03:46:54;18.70;99.90
9564;DHT22;4820;50.870;4.702;2022-08-19T03:49:25;18.70;99.90
9564;DHT22;4820;50.870;4.702;2022-08-19T03:51:53;18.70;99.90
9564;DHT22;4820;50.870;4.702;2022-08-19T03:54:22;18.60;99.90
9564;DHT22;4820;50.870;4.702;2022-08-19T03:56:53;18.60;99.90
9564;DHT22;4820;50.870;4.702;2022-08-19T03:59:31;18.60;99.90
9564;DHT22;4820;50.870;4.702;2022-08-19T04:02:00;18.50;99.90
9564;DHT22;4820;50.870;4.702;2022-08-19T04:04:27;18.50;99.90
9564;DHT22;4820;50.870;4.702;2022-08-19T04:06:52;18.40;99.90
9564;DHT22;4820;50.870;4.702;2022-08-19T04:09:19;18.40;99.90
9564;DHT22;4820;50.870;4.702;2022-08-19T04:11:52;18.40;99.90
9564;DHT22;4820;50.870;4.702;2022-08-19T04:14:24;18.40;99.90
9564;DHT22;4820;50.870;4.702;2022-08-19T04:16:51;18.30;99.90
9564;DHT22;4820;50.870;4.702;2022-08-19T04:19:18;18.30;99.90
9564;DHT22;4820;50.870;4.702;2022-08-19T04:21:46;18.30;99.90
9564;DHT22;4820;50.870;4.702;2022-08-19T04:24:13;18.40;99.90
9564;DHT22;4820;50.870;4.702;2022-08-19T04:26:39;18.40;99.90
9564;DHT22;4820;50.870;4.702;2022-08-19T04:29:08;18.40;99.90
9564;DHT22;4820;50.870;4.702;2022-08-19T04:31:35;18.30;99.90
9564;DHT22;4820;50.870;4.702;2022-08-19T04:34:03;18.30;99.90
9564;DHT22;4820;50.870;4.702;2022-08-19T04:36:32;18.20;99.90
9564;DHT22;4820;50.870;4.702;2022-08-19T04:39:03;18.20;99.90
9564;DHT22;4820;50.870;4.702;2022-08-19T04:41:29;18.10;99.90
9564;DHT22;4820;50.870;4.702;2022-08-19T04:44:15;18.10;99.90
9564;DHT22;4820;50.870;4.702;2022-08-19T04:46:45;18.00;99.90
9564;DHT22;4820;50.870;4.702;2022-08-19T04:49:12;18.00;99.90
9564;DHT22;4820;50.870;4.702;2022-08-19T04:51:41;17.90;99.90
9564;DHT22;4820;50.870;4.702;2022-08-19T04:54:07;17.90;99.90
9564;DHT22;4820;50.870;4.702;2022-08-19T04:56:33;17.90;99.90
9564;DHT22;4820;50.870;4.702;2022-08-19T04:58:59;17.80;99.90
9564;DHT22;4820;50.870;4.702;2022-08-19T05:01:29;17.80;99.90
9564;DHT22;4820;50.870;4.702;2022-08-19T05:03:55;17.80;99.90
9564;DHT22;4820;50.870;4.702;2022-08-19T05:06:22;17.80;99.90
9564;DHT22;4820;50.870;4.702;2022-08-19T05:08:49;17.80;99.90
9564;DHT22;4820;50.870;4.702;2022-08-19T05:11:20;17.80;99.90
9564;DHT22;4820;50.870;4.702;2022-08-19T05:13:47;17.80;99.90
9564;DHT22;4820;50.870;4.702;2022-08-19T05:16:20;17.70;99.90
9564;DHT22;4820;50.870;4.702;2022-08-19T05:18:46;17.70;99.90
9564;DHT22;4820;50.870;4.702;2022-08-19T05:21:30;17.70;99.90
9564;DHT22;4820;50.870;4.702;2022-08-19T05:24:16;17.60;99.90
9564;DHT22;4820;50.870;4.702;2022-08-19T05:26:45;17.60;99.90
9564;DHT22;4820;50.870;4.702;2022-08-19T05:29:20;17.60;99.90
9564;DHT22;4820;50.870;4.702;2022-08-19T05:31:48;17.50;99.90
9564;DHT22;4820;50.870;4.702;2022-08-19T05:34:16;17.50;99.90
9564;DHT22;4820;50.870;4.702;2022-08-19T05:36:44;17.50;99.90
9564;DHT22;4820;50.870;4.702;2022-08-19T05:39:17;17.50;99.90
9564;DHT22;4820;50.870;4.702;2022-08-19T05:41:45;17.50;99.90
9564;DHT22;4820;50.870;4.702;2022-08-19T05:44:12;17.50;99.90
9564;DHT22;4820;50.870;4.702;2022-08-19T05:46:39;17.50;99.90
9564;DHT22;4820;50.870;4.702;2022-08-19T05:49:06;17.50;99.90
9564;DHT22;4820;50.870;4.702;2022-08-19T05:51:33;17.50;99.90
9564;DHT22;4820;50.870;4.702;2022-08-19T05:54:01;17.50;99.90
9564;DHT22;4820;50.870;4.702;2022-08-19T05:56:28;17.50;99.90
9564;DHT22;4820;50.870;4.702;2022-08-19T05:58:57;17.50;99.90
9564;DHT22;4820;50.870;4.702;2022-08-19T06:01:25;17.60;99.90
9564;DHT22;4820;50.870;4.702;2022-08-19T06:03:52;17.60;99.90
9564;DHT22;4820;50.870;4.702;2022-08-19T06:06:19;17.70;99.90
9564;DHT22;4820;50.870;4.702;2022-08-19T06:08:45;17.70;99.90
9564;DHT22;4820;50.870;4.702;2022-08-19T06:13:49;17.90;99.90
9564;DHT22;4820;50.870;4.702;2022-08-19T06:16:22;17.90;99.90
9564;DHT22;4820;50.870;4.702;2022-08-19T06:18:54;17.90;99.90
9564;DHT22;4820;50.870;4.702;2022-08-19T06:21:24;18.00;99.90
9564;DHT22;4820;50.870;4.702;2022-08-19T06:23:51;18.00;99.90
9564;DHT22;4820;50.870;4.702;2022-08-19T06:26:18;18.10;99.90
9564;DHT22;4820;50.870;4.702;2022-08-19T06:28:45;18.20;99.90
9564;DHT22;4820;50.870;4.702;2022-08-19T06:31:15;18.30;99.90
9564;DHT22;4820;50.870;4.702;2022-08-19T06:33:43;18.40;99.90
9564;DHT22;4820;50.870;4.702;2022-08-19T06:36:19;18.40;99.90
9564;DHT22;4820;50.870;4.702;2022-08-19T06:38:45;18.40;99.90
9564;DHT22;4820;50.870;4.702;2022-08-19T06:41:11;18.50;99.90
9564;DHT22;4820;50.870;4.702;2022-08-19T06:43:37;18.60;99.90
9564;DHT22;4820;50.870;4.702;2022-08-19T06:46:03;18.70;99.90
9564;DHT22;4820;50.870;4.702;2022-08-19T06:48:30;18.80;99.90
9564;DHT22;4820;50.870;4.702;2022-08-19T06:50:57;19.00;99.90
9564;DHT22;4820;50.870;4.702;2022-08-19T06:53:22;19.00;99.90
9564;DHT22;4820;50.870;4.702;2022-08-19T06:55:48;19.00;99.90
9564;DHT22;4820;50.870;4.702;2022-08-19T06:58:25;19.00;99.90
9564;DHT22;4820;50.870;4.702;2022-08-19T07:00:52;19.00;99.90
9564;DHT22;4820;50.870;4.702;2022-08-19T07:03:18;19.10;99.90
9564;DHT22;4820;50.870;4.702;2022-08-19T07:05:43;19.20;99.90
9564;DHT22;4820;50.870;4.702;2022-08-19T07:08:11;19.30;99.90
9564;DHT22;4820;50.870;4.702;2022-08-19T07:10:37;19.30;99.90
9564;DHT22;4820;50.870;4.702;2022-08-19T07:13:03;19.30;99.90
9564;DHT22;4820;50.870;4.702;2022-08-19T07:15:29;19.30;99.90
9564;DHT22;4820;50.870;4.702;2022-08-19T07:17:56;19.30;99.90
9564;DHT22;4820;50.870;4.702;2022-08-19T07:20:21;19.30;99.90
9564;DHT22;4820;50.870;4.702;2022-08-19T07:22:47;19.30;99.90
9564;DHT22;4820;50.870;4.702;2022-08-19T07:25:13;19.40;99.90
9564;DHT22;4820;50.870;4.702;2022-08-19T07:27:39;19.50;99.90
9564;DHT22;4820;50.870;4.702;2022-08-19T07:30:05;19.60;99.90
9564;DHT22;4820;50.870;4.702;2022-08-19T07:32:31;19.70;99.90
9564;DHT22;4820;50.870;4.702;2022-08-19T07:34:57;19.80;99.90
9564;DHT22;4820;50.870;4.702;2022-08-19T07:37:24;19.90;99.90
9564;DHT22;4820;50.870;4.702;2022-08-19T07:39:52;20.00;99.90
9564;DHT22;4820;50.870;4.702;2022-08-19T07:42:17;20.10;99.90
9564;DHT22;4820;50.870;4.702;2022-08-19T07:44:46;20.30;99.90
9564;DHT22;4820;50.870;4.702;2022-08-19T07:47:12;20.40;99.90
9564;DHT22;4820;50.870;4.702;2022-08-19T07:49:38;20.40;99.90
9564;DHT22;4820;50.870;4.702;2022-08-19T07:52:07;20.50;99.90
9564;DHT22;4820;50.870;4.702;2022-08-19T07:54:39;20.50;99.90
9564;DHT22;4820;50.870;4.702;2022-08-19T07:57:06;20.60;99.90
9564;DHT22;4820;50.870;4.702;2022-08-19T07:59:32;20.70;99.90
9564;DHT22;4820;50.870;4.702;2022-08-19T08:01:58;20.90;99.90
9564;DHT22;4820;50.870;4.702;2022-08-19T08:04:29;21.10;99.90
9564;DHT22;4820;50.870;4.702;2022-08-19T08:07:13;21.10;99.90
9564;DHT22;4820;50.870;4.702;2022-08-19T08:10:14;21.20;99.90
9564;DHT22;4820;50.870;4.702;2022-08-19T08:12:40;21.30;99.90
9564;DHT22;4820;50.870;4.702;2022-08-19T08:15:10;21.40;99.90
9564;DHT22;4820;50.870;4.702;2022-08-19T08:17:37;21.50;99.90
9564;DHT22;4820;50.870;4.702;2022-08-19T08:20:05;21.50;99.90
9564;DHT22;4820;50.870;4.702;2022-08-19T08:22:32;21.50;99.90
9564;DHT22;4820;50.870;4.702;2022-08-19T08:25:20;21.50;99.90
9564;DHT22;4820;50.870;4.702;2022-08-19T08:27:46;21.50;99.90
9564;DHT22;4820;50.870;4.702;2022-08-19T08:30:22;21.60;99.90
9564;DHT22;4820;50.870;4.702;2022-08-19T08:32:48;21.60;99.90
9564;DHT22;4820;50.870;4.702;2022-08-19T08:35:19;21.80;99.90
9564;DHT22;4820;50.870;4.702;2022-08-19T08:37:47;22.00;99.90
9564;DHT22;4820;50.870;4.702;2022-08-19T08:46:15;21.60;99.90
9564;DHT22;4820;50.870;4.702;2022-08-19T08:48:56;21.50;99.90
9564;DHT22;4820;50.870;4.702;2022-08-19T08:51:32;21.50;99.90
9564;DHT22;4820;50.870;4.702;2022-08-19T08:54:00;21.60;99.90
9564;DHT22;4820;50.870;4.702;2022-08-19T08:56:27;21.70;99.90
9564;DHT22;4820;50.870;4.702;2022-08-19T08:58:59;21.70;99.90
9564;DHT22;4820;50.870;4.702;2022-08-19T09:01:27;21.80;99.90
9564;DHT22;4820;50.870;4.702;2022-08-19T09:03:53;21.80;99.90
9564;DHT22;4820;50.870;4.702;2022-08-19T09:06:36;21.90;99.90
9564;DHT22;4820;50.870;4.702;2022-08-19T09:15:13;22.40;99.90
9564;DHT22;4820;50.870;4.702;2022-08-19T09:17:39;22.40;99.90
9564;DHT22;4820;50.870;4.702;2022-08-19T09:20:15;22.60;99.90
9564;DHT22;4820;50.870;4.702;2022-08-19T09:22:43;22.50;99.90
9564;DHT22;4820;50.870;4.702;2022-08-19T09:25:12;22.60;99.90
9564;DHT22;4820;50.870;4.702;2022-08-19T09:27:40;22.70;99.90
9564;DHT22;4820;50.870;4.702;2022-08-19T09:30:08;22.80;99.90
9564;DHT22;4820;50.870;4.702;2022-08-19T09:32:34;23.00;99.90
9564;DHT22;4820;50.870;4.702;2022-08-19T09:35:00;22.90;99.90
9564;DHT22;4820;50.870;4.702;2022-08-19T09:37:28;23.00;99.90
9564;DHT22;4820;50.870;4.702;2022-08-19T09:39:53;23.10;99.90
9564;DHT22;4820;50.870;4.702;2022-08-19T09:42:20;23.20;99.90
9564;DHT22;4820;50.870;4.702;2022-08-19T09:44:46;23.30;99.90
9564;DHT22;4820;50.870;4.702;2022-08-19T09:47:12;23.40;99.90
9564;DHT22;4820;50.870;4.702;2022-08-19T09:49:39;23.50;99.90
9564;DHT22;4820;50.870;4.702;2022-08-19T09:52:10;23.70;99.90
9564;DHT22;4820;50.870;4.702;2022-08-19T09:54:37;23.70;99.90
9564;DHT22;4820;50.870;4.702;2022-08-19T09:57:04;23.80;99.90
9564;DHT22;4820;50.870;4.702;2022-08-19T09:59:30;23.80;99.90
9564;DHT22;4820;50.870;4.702;2022-08-19T10:01:56;23.90;99.90
9564;DHT22;4820;50.870;4.702;2022-08-19T10:04:22;23.70;99.90
9564;DHT22;4820;50.870;4.702;2022-08-19T10:06:49;23.80;99.90
9564;DHT22;4820;50.870;4.702;2022-08-19T10:09:17;23.70;99.90
9564;DHT22;4820;50.870;4.702;2022-08-19T10:11:44;23.60;99.90
9564;DHT22;4820;50.870;4.702;2022-08-19T10:14:15;23.40;99.90
9564;DHT22;4820;50.870;4.702;2022-08-19T10:16:42;23.40;99.90
9564;DHT22;4820;50.870;4.702;2022-08-19T10:19:09;23.30;99.90
9564;DHT22;4820;50.870;4.702;2022-08-19T10:21:35;23.30;99.90
9564;DHT22;4820;50.870;4.702;2022-08-19T10:24:03;23.40;99.90
9564;DHT22;4820;50.870;4.702;2022-08-19T10:26:33;23.40;99.90
9564;DHT22;4820;50.870;4.702;2022-08-19T10:29:00;23.40;99.90
9564;DHT22;4820;50.870;4.702;2022-08-19T10:31:30;23.40;99.90
9564;DHT22;4820;50.870;4.702;2022-08-19T10:33:57;23.30;99.90
9564;DHT22;4820;50.870;4.702;2022-08-19T10:36:34;23.20;99.90
9564;DHT22;4820;50.870;4.702;2022-08-19T10:39:04;23.30;99.90
9564;DHT22;4820;50.870;4.702;2022-08-19T10:41:32;23.50;99.90
9564;DHT22;4820;50.870;4.702;2022-08-19T10:44:05;23.50;99.90
9564;DHT22;4820;50.870;4.702;2022-08-19T10:46:35;23.60;99.90
9564;DHT22;4820;50.870;4.702;2022-08-19T10:49:04;23.60;99.90
9564;DHT22;4820;50.870;4.702;2022-08-19T10:51:31;23.60;99.90
9564;DHT22;4820;50.870;4.702;2022-08-19T10:54:32;23.70;99.90
9564;DHT22;4820;50.870;4.702;2022-08-19T10:57:18;23.80;99.90
9564;DHT22;4820;50.870;4.702;2022-08-19T10:59:43;23.90;99.90
9564;DHT22;4820;50.870;4.702;2022-08-19T11:02:11;24.10;99.90
9564;DHT22;4820;50.870;4.702;2022-08-19T11:04:38;24.30;99.90
9564;DHT22;4820;50.870;4.702;2022-08-19T11:07:06;24.30;99.90
9564;DHT22;4820;50.870;4.702;2022-08-19T11:09:37;24.40;99.90
9564;DHT22;4820;50.870;4.702;2022-08-19T11:12:04;24.30;99.90
9564;DHT22;4820;50.870;4.702;2022-08-19T11:14:33;24.30;99.90
9564;DHT22;4820;50.870;4.702;2022-08-19T11:17:00;24.10;99.90
9564;DHT22;4820;50.870;4.702;2022-08-19T11:19:27;24.10;99.90
9564;DHT22;4820;50.870;4.702;2022-08-19T11:21:53;24.10;99.90
9564;DHT22;4820;50.870;4.702;2022-08-19T11:24:22;24.10;99.90
9564;DHT22;4820;50.870;4.702;2022-08-19T11:26:50;24.10;99.90
9564;DHT22;4820;50.870;4.702;2022-08-19T11:29:19;24.10;99.90
9564;DHT22;4820;50.870;4.702;2022-08-19T11:31:48;23.80;99.90
9564;DHT22;4820;50.870;4.702;2022-08-19T11:34:19;23.70;99.90
9564;DHT22;4820;50.870;4.702;2022-08-19T11:36:47;23.80;99.90
9564;DHT22;4820;50.870;4.702;2022-08-19T11:39:15;23.80;99.90
9564;DHT22;4820;50.870;4.702;2022-08-19T11:41:43;23.70;99.90
9564;DHT22;4820;50.870;4.702;2022-08-19T11:44:09;23.60;99.90
9564;DHT22;4820;50.870;4.702;2022-08-19T11:46:36;23.50;99.90
9564;DHT22;4820;50.870;4.702;2022-08-19T11:49:03;23.40;99.90
9564;DHT22;4820;50.870;4.702;2022-08-19T11:51:31;23.50;99.90
9564;DHT22;4820;50.870;4.702;2022-08-19T11:53:58;23.70;99.90
9564;DHT22;4820;50.870;4.702;2022-08-19T11:56:25;23.60;99.90
9564;DHT22;4820;50.870;4.702;2022-08-19T11:58:52;23.60;99.90
9564;DHT22;4820;50.870;4.702;2022-08-19T12:01:21;23.60;99.90
9564;DHT22;4820;50.870;4.702;2022-08-19T12:03:50;23.70;99.90
9564;DHT22;4820;50.870;4.702;2022-08-19T12:06:19;23.90;99.90
9564;DHT22;4820;50.870;4.702;2022-08-19T12:08:49;24.20;99.90
9564;DHT22;4820;50.870;4.702;2022-08-19T12:11:15;24.10;99.90
9564;DHT22;4820;50.870;4.702;2022-08-19T12:13:42;23.90;99.90
9564;DHT22;4820;50.870;4.702;2022-08-19T12:16:19;23.70;99.90
9564;DHT22;4820;50.870;4.702;2022-08-19T12:18:46;23.40;99.90
9564;DHT22;4820;50.870;4.702;2022-08-19T12:21:13;23.20;99.90
9564;DHT22;4820;50.870;4.702;2022-08-19T12:23:40;23.10;99.90
9564;DHT22;4820;50.870;4.702;2022-08-19T12:26:06;23.00;99.90
9564;DHT22;4820;50.870;4.702;2022-08-19T12:28:32;23.00;99.90
9564;DHT22;4820;50.870;4.702;2022-08-19T12:30:58;23.10;99.90
9564;DHT22;4820;50.870;4.702;2022-08-19T12:33:24;23.30;99.90
9564;DHT22;4820;50.870;4.702;2022-08-19T12:35:53;23.60;99.90
9564;DHT22;4820;50.870;4.702;2022-08-19T12:38:19;23.80;99.90
9564;DHT22;4820;50.870;4.702;2022-08-19T12:40:46;24.00;99.90
9564;DHT22;4820;50.870;4.702;2022-08-19T12:43:12;24.20;99.90
9564;DHT22;4820;50.870;4.702;2022-08-19T12:45:39;24.50;99.90
9564;DHT22;4820;50.870;4.702;2022-08-19T12:48:06;24.70;99.90
9564;DHT22;4820;50.870;4.702;2022-08-19T12:50:34;24.90;99.90
9564;DHT22;4820;50.870;4.702;2022-08-19T12:53:00;24.90;99.90
9564;DHT22;4820;50.870;4.702;2022-08-19T12:55:26;24.90;99.90
9564;DHT22;4820;50.870;4.702;2022-08-19T12:57:53;25.00;99.90
9564;DHT22;4820;50.870;4.702;2022-08-19T13:00:21;25.00;99.90
9564;DHT22;4820;50.870;4.702;2022-08-19T13:02:50;25.10;99.90
9564;DHT22;4820;50.870;4.702;2022-08-19T13:05:20;25.30;99.90
9564;DHT22;4820;50.870;4.702;2022-08-19T13:07:51;25.60;99.90
9564;DHT22;4820;50.870;4.702;2022-08-19T13:10:19;25.70;99.90
9564;DHT22;4820;50.870;4.702;2022-08-19T13:12:48;25.60;99.90
9564;DHT22;4820;50.870;4.702;2022-08-19T13:15:17;25.60;99.90
9564;DHT22;4820;50.870;4.702;2022-08-19T13:17:49;25.60;99.90
9564;DHT22;4820;50.870;4.702;2022-08-19T13:20:18;25.80;99.90
9564;DHT22;4820;50.870;4.702;2022-08-19T13:22:48;25.90;99.90
9564;DHT22;4820;50.870;4.702;2022-08-19T13:25:15;25.90;99.90
9564;DHT22;4820;50.870;4.702;2022-08-19T13:27:43;26.00;99.90
9564;DHT22;4820;50.870;4.702;2022-08-19T13:30:11;25.90;99.90
9564;DHT22;4820;50.870;4.702;2022-08-19T13:32:56;25.90;99.90
9564;DHT22;4820;50.870;4.702;2022-08-19T13:35:48;26.10;99.90
9564;DHT22;4820;50.870;4.702;2022-08-19T13:38:18;26.40;99.90
9564;DHT22;4820;50.870;4.702;2022-08-19T13:40:45;26.50;99.90
9564;DHT22;4820;50.870;4.702;2022-08-19T13:43:11;26.60;99.90
9564;DHT22;4820;50.870;4.702;2022-08-19T13:45:37;26.70;99.90
9564;DHT22;4820;50.870;4.702;2022-08-19T13:48:06;26.70;99.90
9564;DHT22;4820;50.870;4.702;2022-08-19T13:50:39;26.70;99.90
9564;DHT22;4820;50.870;4.702;2022-08-19T13:53:09;26.60;99.90
9564;DHT22;4820;50.870;4.702;2022-08-19T13:55:40;26.40;99.90
9564;DHT22;4820;50.870;4.702;2022-08-19T13:58:08;26.20;99.90
9564;DHT22;4820;50.870;4.702;2022-08-19T14:00:38;26.10;99.90
9564;DHT22;4820;50.870;4.702;2022-08-19T14:03:06;25.90;99.90
9564;DHT22;4820;50.870;4.702;2022-08-19T14:05:33;25.90;99.90
9564;DHT22;4820;50.870;4.702;2022-08-19T14:07:59;26.00;99.90
9564;DHT22;4820;50.870;4.702;2022-08-19T14:10:27;25.80;99.90
9564;DHT22;4820;50.870;4.702;2022-08-19T14:12:58;25.90;99.90
9564;DHT22;4820;50.870;4.702;2022-08-19T14:15:25;26.00;99.90
9564;DHT22;4820;50.870;4.702;2022-08-19T14:17:51;26.00;99.90
9564;DHT22;4820;50.870;4.702;2022-08-19T14:20:17;25.90;99.90
9564;DHT22;4820;50.870;4.702;2022-08-19T14:22:45;25.80;99.90
9564;DHT22;4820;50.870;4.702;2022-08-19T14:25:16;25.70;99.90
9564;DHT22;4820;50.870;4.702;2022-08-19T14:27:43;25.70;99.90
9564;DHT22;4820;50.870;4.702;2022-08-19T14:30:13;25.70;99.90
9564;DHT22;4820;50.870;4.702;2022-08-19T14:32:40;25.70;99.90
9564;DHT22;4820;50.870;4.702;2022-08-19T14:35:09;25.80;99.90
9564;DHT22;4820;50.870;4.702;2022-08-19T14:37:35;25.90;99.90
9564;DHT22;4820;50.870;4.702;2022-08-19T14:40:03;25.90;99.90
9564;DHT22;4820;50.870;4.702;2022-08-19T14:42:30;26.00;99.90
9564;DHT22;4820;50.870;4.702;2022-08-19T14:45:02;26.20;99.90
9564;DHT22;4820;50.870;4.702;2022-08-19T14:47:32;26.00;99.90
9564;DHT22;4820;50.870;4.702;2022-08-19T14:49:58;25.90;99.90
9564;DHT22;4820;50.870;4.702;2022-08-19T14:52:24;25.80;99.90
9564;DHT22;4820;50.870;4.702;2022-08-19T14:54:50;25.70;99.90
9564;DHT22;4820;50.870;4.702;2022-08-19T14:57:16;25.50;99.90
9564;DHT22;4820;50.870;4.702;2022-08-19T14:59:43;25.40;99.90
9564;DHT22;4820;50.870;4.702;2022-08-19T15:02:09;25.20;99.90
9564;DHT22;4820;50.870;4.702;2022-08-19T15:04:36;25.20;99.90
9564;DHT22;4820;50.870;4.702;2022-08-19T15:07:03;25.00;99.90
9564;DHT22;4820;50.870;4.702;2022-08-19T15:09:31;24.90;99.90
9564;DHT22;4820;50.870;4.702;2022-08-19T15:11:57;24.70;99.90
9564;DHT22;4820;50.870;4.702;2022-08-19T15:14:25;24.60;99.90
9564;DHT22;4820;50.870;4.702;2022-08-19T15:16:51;24.60;99.90
9564;DHT22;4820;50.870;4.702;2022-08-19T15:19:17;24.60;99.90
9564;DHT22;4820;50.870;4.702;2022-08-19T15:21:45;24.60;99.90
9564;DHT22;4820;50.870;4.702;2022-08-19T15:24:11;24.70;99.90
9564;DHT22;4820;50.870;4.702;2022-08-19T15:26:37;24.60;99.90
9564;DHT22;4820;50.870;4.702;2022-08-19T15:29:04;24.50;99.90
9564;DHT22;4820;50.870;4.702;2022-08-19T15:31:30;24.40;99.90
9564;DHT22;4820;50.870;4.702;2022-08-19T15:34:02;24.20;99.90
9564;DHT22;4820;50.870;4.702;2022-08-19T15:36:29;24.10;99.90
9564;DHT22;4820;50.870;4.702;2022-08-19T15:38:58;24.00;99.90
9564;DHT22;4820;50.870;4.702;2022-08-19T15:41:29;23.90;99.90
9564;DHT22;4820;50.870;4.702;2022-08-19T15:46:25;23.70;99.90
9564;DHT22;4820;50.870;4.702;2022-08-19T15:48:53;23.60;99.90
9564;DHT22;4820;50.870;4.702;2022-08-19T15:51:19;23.60;99.90
9564;DHT22;4820;50.870;4.702;2022-08-19T15:53:46;23.60;99.90
9564;DHT22;4820;50.870;4.702;2022-08-19T15:56:13;23.60;99.90
9564;DHT22;4820;50.870;4.702;2022-08-19T15:58:39;23.70;99.90
9564;DHT22;4820;50.870;4.702;2022-08-19T16:01:24;24.00;99.90
9564;DHT22;4820;50.870;4.702;2022-08-19T16:04:08;24.30;99.90
9564;DHT22;4820;50.870;4.702;2022-08-19T16:06:55;24.40;99.90
9564;DHT22;4820;50.870;4.702;2022-08-19T16:09:24;24.40;99.90
9564;DHT22;4820;50.870;4.702;2022-08-19T16:12:03;24.40;99.90
9564;DHT22;4820;50.870;4.702;2022-08-19T16:14:32;24.40;99.90
9564;DHT22;4820;50.870;4.702;2022-08-19T16:16:57;24.20;99.90
9564;DHT22;4820;50.870;4.702;2022-08-19T16:19:24;24.10;99.90
9564;DHT22;4820;50.870;4.702;2022-08-19T16:21:54;24.10;99.90
9564;DHT22;4820;50.870;4.702;2022-08-19T16:24:22;24.20;99.90
9564;DHT22;4820;50.870;4.702;2022-08-19T16:26:48;24.30;99.90
9564;DHT22;4820;50.870;4.702;2022-08-19T16:29:16;24.30;99.90